createdAt,value
2019-05-18T00:00:50.249Z,9.49
2019-05-18T00:02:50.391Z,9.46
2019-05-18T00:04:49.744Z,9.43
2019-05-18T00:06:49.880Z,9.40
2019-05-18T00:08:49.993Z,9.37
2019-05-18T00:10:49.999Z,9.35
2019-05-18T00:12:50.020Z,9.38
2019-05-18T00:14:50.022Z,9.36
2019-05-18T00:16:50.242Z,9.34
2019-05-18T00:18:50.201Z,9.35
2019-05-18T00:20:50.222Z,9.40
2019-05-18T00:22:50.339Z,9.43
2019-05-18T00:24:50.338Z,9.42
2019-05-18T00:26:50.568Z,9.38
2019-05-18T00:28:50.624Z,9.39
2019-05-18T00:30:50.657Z,9.46
2019-05-18T00:32:49.776Z,9.44
2019-05-18T00:34:50.083Z,9.43
2019-05-18T00:36:50.343Z,9.40
2019-05-18T00:38:50.415Z,9.35
2019-05-18T00:40:50.515Z,9.30
2019-05-18T00:42:50.539Z,9.25
2019-05-18T00:44:50.610Z,9.19
2019-05-18T00:46:49.941Z,9.15
2019-05-18T00:48:49.939Z,9.05
2019-05-18T00:50:49.951Z,9.01
2019-05-18T00:52:50.106Z,8.94
2019-05-18T00:54:50.151Z,8.89
2019-05-18T00:56:50.475Z,8.82
2019-05-18T00:58:50.489Z,8.82
2019-05-18T01:00:50.588Z,8.79
2019-05-18T01:02:49.775Z,8.78
2019-05-18T01:04:50.206Z,8.74
2019-05-18T01:06:50.344Z,8.69
2019-05-18T01:08:50.481Z,8.64
2019-05-18T01:10:50.500Z,8.64
2019-05-18T01:12:50.498Z,8.63
2019-05-18T01:14:50.591Z,8.61
2019-05-18T01:16:49.806Z,8.58
2019-05-18T01:18:49.821Z,8.56
2019-05-18T01:20:49.999Z,8.53
2019-05-18T01:22:50.206Z,8.55
2019-05-18T01:24:50.353Z,8.53
2019-05-18T01:26:50.468Z,8.53
2019-05-18T01:28:50.631Z,8.43
2019-05-18T01:30:50.678Z,8.39
2019-05-18T01:32:49.782Z,8.29
2019-05-18T01:34:50.313Z,8.19
2019-05-18T01:36:50.446Z,8.16
2019-05-18T01:38:50.537Z,8.13
2019-05-18T01:40:50.658Z,8.03
2019-05-18T01:42:50.623Z,8.01
2019-05-18T01:44:49.729Z,7.96
2019-05-18T01:46:49.857Z,7.93
2019-05-18T01:48:49.899Z,7.88
2019-05-18T01:50:49.918Z,7.84
2019-05-18T01:52:49.985Z,7.82
2019-05-18T01:54:50.114Z,7.78
2019-05-18T01:56:50.319Z,7.72
2019-05-18T01:58:50.367Z,7.69
2019-05-18T02:00:50.449Z,7.63
2019-05-18T02:02:50.497Z,7.54
2019-05-18T02:04:50.002Z,7.53
2019-05-18T02:06:50.203Z,7.45
2019-05-18T02:08:50.568Z,7.41
2019-05-18T02:10:50.620Z,7.35
2019-05-18T02:12:50.586Z,7.33
2019-05-18T02:14:50.525Z,7.29
2019-05-18T02:16:50.622Z,7.26
2019-05-18T02:18:50.601Z,7.21
2019-05-18T02:20:50.599Z,7.15
2019-05-18T02:22:49.716Z,7.11
2019-05-18T02:24:49.764Z,7.05
2019-05-18T02:26:49.912Z,7.04
2019-05-18T02:28:49.861Z,7.07
2019-05-18T02:30:49.764Z,7.06
2019-05-18T02:32:49.961Z,7.06
2019-05-18T02:34:50.658Z,7.03
2019-05-18T02:36:49.963Z,6.95
2019-05-18T02:38:50.025Z,6.92
2019-05-18T02:40:50.184Z,6.87
2019-05-18T02:42:50.202Z,6.86
2019-05-18T02:44:50.285Z,6.83
2019-05-18T02:46:50.462Z,6.81
2019-05-18T02:48:51.230Z,6.76
2019-05-18T02:50:50.376Z,6.76
2019-05-18T02:52:50.432Z,6.74
2019-05-18T02:54:50.478Z,6.68
2019-05-18T02:56:49.741Z,6.65
2019-05-18T02:58:50.703Z,6.62
2019-05-18T03:00:49.783Z,6.60
2019-05-18T03:02:49.775Z,6.55
2019-05-18T03:04:50.253Z,6.52
2019-05-18T03:06:50.450Z,6.48
2019-05-18T03:08:50.525Z,6.44
2019-05-18T03:10:50.655Z,6.41
2019-05-18T03:12:50.623Z,6.36
2019-05-18T03:14:49.726Z,6.34
2019-05-18T03:16:50.054Z,6.32
2019-05-18T03:19:09.523Z,6.30
2019-05-18T03:20:50.349Z,6.28
2019-05-18T03:22:50.455Z,6.26
2019-05-18T03:24:50.553Z,6.25
2019-05-18T03:26:49.825Z,6.21
2019-05-18T03:28:49.909Z,6.19
2019-05-18T03:30:49.959Z,6.19
2019-05-18T03:32:50.065Z,6.18
2019-05-18T03:34:50.839Z,6.17
2019-05-18T03:36:50.049Z,6.16
2019-05-18T03:38:50.155Z,6.14
2019-05-18T03:40:50.180Z,6.14
2019-05-18T03:42:50.236Z,6.12
2019-05-18T03:44:50.333Z,6.10
2019-05-18T03:46:50.518Z,6.10
2019-05-18T03:48:50.611Z,6.09
2019-05-18T03:50:49.710Z,6.10
2019-05-18T03:52:50.689Z,6.10
2019-05-18T03:54:49.789Z,6.08
2019-05-18T03:56:49.965Z,6.09
2019-05-18T03:58:49.991Z,6.09
2019-05-18T04:00:50.022Z,6.10
2019-05-18T04:02:50.198Z,6.10
2019-05-18T04:04:50.508Z,6.11
2019-05-18T04:06:50.620Z,6.13
2019-05-18T04:08:50.657Z,6.16
2019-05-18T04:10:49.801Z,6.20
2019-05-18T04:12:49.784Z,6.22
2019-05-18T04:14:49.892Z,6.25
2019-05-18T04:16:50.156Z,6.31
2019-05-18T04:18:50.351Z,6.34
2019-05-18T04:20:50.380Z,6.37
2019-05-18T04:22:50.444Z,6.43
2019-05-18T04:24:50.568Z,6.51
2019-05-18T04:26:50.366Z,6.59
2019-05-18T04:28:50.444Z,6.63
2019-05-18T04:30:50.546Z,6.75
2019-05-18T04:32:50.624Z,6.79
2019-05-18T04:34:50.159Z,6.79
2019-05-18T04:36:50.308Z,6.97
2019-05-18T04:38:50.326Z,7.03
2019-05-18T04:40:50.481Z,7.06
2019-05-18T04:42:50.516Z,7.13
2019-05-18T04:44:50.648Z,7.22
2019-05-18T04:46:50.048Z,7.32
2019-05-18T04:48:50.208Z,7.37
2019-05-18T04:50:50.331Z,7.47
2019-05-18T04:52:50.489Z,7.56
2019-05-18T04:54:50.564Z,7.58
2019-05-18T04:56:49.767Z,7.58
2019-05-18T04:58:49.848Z,7.86
2019-05-18T05:00:49.972Z,7.91
2019-05-18T05:02:50.053Z,8.03
2019-05-18T05:04:57.155Z,8.17
2019-05-18T05:06:50.311Z,8.27
2019-05-18T05:08:50.455Z,8.41
2019-05-18T05:10:50.445Z,8.51
2019-05-18T05:12:50.576Z,8.56
2019-05-18T05:14:50.682Z,8.69
2019-05-18T05:16:49.905Z,8.85
2019-05-18T05:18:49.946Z,8.90
2019-05-18T05:20:49.961Z,9.06
2019-05-18T05:22:50.132Z,9.21
2019-05-18T05:24:50.111Z,9.31
2019-05-18T05:26:50.279Z,9.43
2019-05-18T05:28:50.506Z,9.52
2019-05-18T05:30:50.494Z,9.66
2019-05-18T05:32:50.605Z,9.80
2019-05-18T05:34:49.893Z,9.93
2019-05-18T05:36:50.725Z,10.13
2019-05-18T05:38:50.664Z,10.21
2019-05-18T05:40:50.703Z,10.39
2019-05-18T05:42:49.801Z,10.53
2019-05-18T05:44:49.858Z,10.65
2019-05-18T05:46:50.168Z,10.77
2019-05-18T05:48:50.142Z,10.78
2019-05-18T05:50:50.196Z,10.89
2019-05-18T05:52:50.269Z,10.97
2019-05-18T05:54:50.244Z,11.17
2019-05-18T05:56:50.348Z,11.21
2019-05-18T05:58:50.396Z,11.35
2019-05-18T06:00:50.364Z,11.41
2019-05-18T06:02:50.455Z,11.54
2019-05-18T06:04:49.886Z,11.63
2019-05-18T06:06:50.072Z,11.72
2019-05-18T06:08:50.098Z,11.93
2019-05-18T06:10:50.158Z,12.08
2019-05-18T06:12:50.216Z,12.13
2019-05-18T06:14:50.183Z,12.21
2019-05-18T06:16:50.396Z,12.40
2019-05-18T06:18:50.435Z,12.51
2019-05-18T06:20:52.399Z,12.67
2019-05-18T06:22:50.422Z,12.81
2019-05-18T06:24:50.428Z,12.99
2019-05-18T06:26:50.526Z,13.07
2019-05-18T06:28:50.588Z,13.24
2019-05-18T06:30:50.644Z,13.38
2019-05-18T06:32:50.599Z,13.43
2019-05-18T06:34:49.877Z,13.54
2019-05-18T06:36:50.114Z,13.61
2019-05-18T06:38:50.170Z,13.74
2019-05-18T06:40:50.254Z,13.83
2019-05-18T06:42:50.382Z,13.95
2019-05-18T06:44:50.425Z,14.04
2019-05-18T06:46:50.652Z,14.22
2019-05-18T06:48:50.678Z,14.25
2019-05-18T06:50:49.784Z,14.27
2019-05-18T06:52:49.739Z,14.46
2019-05-18T06:54:49.805Z,14.50
2019-05-18T06:56:50.044Z,14.62
2019-05-18T06:58:50.131Z,14.74
2019-05-18T07:00:50.163Z,14.87
2019-05-18T07:02:50.208Z,14.90
2019-05-18T07:04:50.614Z,14.89
2019-05-18T07:06:50.674Z,14.90
2019-05-18T07:08:49.735Z,15.06
2019-05-18T07:10:49.733Z,15.19
2019-05-18T07:12:49.741Z,15.26
2019-05-18T07:14:49.811Z,15.3
2019-05-18T07:16:50.225Z,15.4
2019-05-18T07:18:50.308Z,15.37
2019-05-18T07:20:50.323Z,15.38
2019-05-18T07:22:50.450Z,15.45
2019-05-18T07:24:50.531Z,15.49
2019-05-18T07:26:50.602Z,15.65
2019-05-18T07:28:49.738Z,15.7
2019-05-18T07:30:49.760Z,15.71
2019-05-18T07:32:49.749Z,15.70
2019-05-18T07:34:50.216Z,15.88
2019-05-18T07:36:50.368Z,15.90
2019-05-18T07:38:50.479Z,15.90
2019-05-18T07:40:50.647Z,15.98
2019-05-18T07:42:49.802Z,15.99
2019-05-18T07:44:49.915Z,16.07
2019-05-18T07:46:50.043Z,16.10
2019-05-18T07:48:50.199Z,16.13
2019-05-18T07:50:50.245Z,16.32
2019-05-18T07:52:50.316Z,16.45
2019-05-18T07:54:50.383Z,16.40
2019-05-18T07:56:50.619Z,16.37
2019-05-18T07:58:49.702Z,16.47
2019-05-18T08:00:49.755Z,16.7
2019-05-18T08:02:49.885Z,16.78
2019-05-18T08:04:50.221Z,16.78
2019-05-18T08:06:50.442Z,16.77
2019-05-18T08:08:50.480Z,16.8
2019-05-18T08:10:50.635Z,17.0
2019-05-18T08:12:49.729Z,17.0
2019-05-18T08:14:49.720Z,17.1
2019-05-18T08:16:49.935Z,17.1
2019-05-18T08:18:49.974Z,17.1
2019-05-18T08:20:49.988Z,17.2
2019-05-18T08:22:50.018Z,17.3
2019-05-18T08:24:50.006Z,17.3
2019-05-18T08:26:50.262Z,17.3
2019-05-18T08:28:50.264Z,17.4
2019-05-18T08:30:50.337Z,17.4
2019-05-18T08:32:50.555Z,17.5
2019-05-18T08:34:49.937Z,17.5
2019-05-18T08:36:50.088Z,17.6
2019-05-18T08:38:50.076Z,17.6
2019-05-18T08:40:50.232Z,17.6
2019-05-18T08:42:50.441Z,17.7
2019-05-18T08:44:50.547Z,17.7
2019-05-18T08:46:49.857Z,17.8
2019-05-18T08:48:49.877Z,17.8
2019-05-18T08:50:49.957Z,17.8
2019-05-18T08:52:50.037Z,17.8
2019-05-18T08:54:50.050Z,17.8
2019-05-18T08:56:50.246Z,17.8
2019-05-18T08:58:50.332Z,17.8
2019-05-18T09:00:50.491Z,17.9
2019-05-18T09:02:50.536Z,17.9
2019-05-18T09:04:50.002Z,18.0
2019-05-18T09:06:50.149Z,18.0
2019-05-18T09:08:50.099Z,18.0
2019-05-18T09:10:50.182Z,18.1
2019-05-18T09:12:50.168Z,18.1
2019-05-18T09:14:50.233Z,18.1
2019-05-18T09:16:50.456Z,18.2
2019-05-18T09:18:50.478Z,18.2
2019-05-18T09:20:50.466Z,18.3
2019-05-18T09:22:50.492Z,18.3
2019-05-18T09:24:50.523Z,18.2
2019-05-18T09:26:49.761Z,18.3
2019-05-18T09:28:49.820Z,18.3
2019-05-18T09:30:49.863Z,18.4
2019-05-18T09:32:50.058Z,18.4
2019-05-18T09:34:50.508Z,18.4
2019-05-18T09:36:49.773Z,18.5
2019-05-18T09:38:49.779Z,18.6
2019-05-18T09:40:49.875Z,18.6
2019-05-18T09:42:49.885Z,18.6
2019-05-18T09:44:50.045Z,18.7
2019-05-18T09:46:50.233Z,18.8
2019-05-18T09:48:50.338Z,18.8
2019-05-18T09:50:50.354Z,18.9
2019-05-18T09:52:50.390Z,18.9
2019-05-18T09:54:50.381Z,18.9
2019-05-18T09:56:50.600Z,19.0
2019-05-18T09:58:50.636Z,19.0
2019-05-18T10:00:50.685Z,19.0
2019-05-18T10:02:50.661Z,19.0
2019-05-18T10:04:50.302Z,19.1
2019-05-18T10:06:50.438Z,19.2
2019-05-18T10:08:50.451Z,19.2
2019-05-18T10:10:50.464Z,19.3
2019-05-18T10:12:50.521Z,19.3
2019-05-18T10:14:50.457Z,19.4
2019-05-18T10:16:50.605Z,19.4
2019-05-18T10:18:49.749Z,19.4
2019-05-18T10:20:50.718Z,19.5
2019-05-18T10:23:14.101Z,19.5
2019-05-18T10:24:49.945Z,19.6
2019-05-18T10:26:50.074Z,19.7
2019-05-18T10:28:50.168Z,19.8
2019-05-18T10:30:50.198Z,19.8
2019-05-18T10:32:50.274Z,19.9
2019-05-18T10:34:50.574Z,20.0
2019-05-18T10:36:50.677Z,20.0
2019-05-18T10:38:49.723Z,20.0
2019-05-18T10:40:49.918Z,20.2
2019-05-18T10:42:49.972Z,20.2
2019-05-18T10:44:50.070Z,20.4
2019-05-18T10:46:50.180Z,20.5
2019-05-18T10:48:50.207Z,20.5
2019-05-18T10:50:50.184Z,20.5
2019-05-18T10:52:50.304Z,20.6
2019-05-18T10:54:50.409Z,20.6
2019-05-18T10:56:50.553Z,20.6
2019-05-18T10:58:50.660Z,20.7
2019-05-18T11:00:50.674Z,20.7
2019-05-18T11:02:50.749Z,20.7
2019-05-18T11:04:50.397Z,20.7
2019-05-18T11:06:50.509Z,20.7
2019-05-18T11:08:50.556Z,20.7
2019-05-18T11:10:50.611Z,20.7
2019-05-18T11:12:50.614Z,20.8
2019-05-18T11:14:50.679Z,20.8
2019-05-18T11:16:49.850Z,20.8
2019-05-18T11:18:49.915Z,20.8
2019-05-18T11:20:50.054Z,20.8
2019-05-18T11:22:50.076Z,20.8
2019-05-18T11:24:49.992Z,20.8
2019-05-18T11:26:50.197Z,20.9
2019-05-18T11:28:50.297Z,21.1
2019-05-18T11:30:50.328Z,21.2
2019-05-18T11:32:50.394Z,21.2
2019-05-18T11:34:49.801Z,21.2
2019-05-18T11:36:49.961Z,21.3
2019-05-18T11:38:49.947Z,21.4
2019-05-18T11:40:50.024Z,21.5
2019-05-18T11:42:50.103Z,21.6
2019-05-18T11:44:50.078Z,21.6
2019-05-18T11:46:50.357Z,21.6
2019-05-18T11:48:50.329Z,21.5
2019-05-18T11:50:50.361Z,21.5
2019-05-18T11:52:50.478Z,21.5
2019-05-18T11:54:50.486Z,21.5
2019-05-18T11:56:50.981Z,21.5
2019-05-18T11:58:50.110Z,21.5
2019-05-18T12:00:50.099Z,21.6
2019-05-18T12:02:50.145Z,21.6
2019-05-18T12:04:50.454Z,21.6
2019-05-18T12:06:49.775Z,21.7
2019-05-18T12:08:49.801Z,21.8
2019-05-18T12:10:49.800Z,21.8
2019-05-18T12:12:49.887Z,21.8
2019-05-18T12:14:49.889Z,21.8
2019-05-18T12:16:50.190Z,22.0
2019-05-18T12:18:50.272Z,22.0
2019-05-18T12:20:50.382Z,22.0
2019-05-18T12:22:50.433Z,22.0
2019-05-18T12:24:50.546Z,22.1
2019-05-18T12:26:49.832Z,22.2
2019-05-18T12:28:49.883Z,22.2
2019-05-18T12:30:50.224Z,22.3
2019-05-18T12:32:50.401Z,22.3
2019-05-18T12:34:49.788Z,22.4
2019-05-18T12:36:49.866Z,22.5
2019-05-18T12:38:49.892Z,22.5
2019-05-18T12:40:49.881Z,22.5
2019-05-18T12:42:49.875Z,22.5
2019-05-18T12:44:50.021Z,22.6
2019-05-18T12:46:50.625Z,22.6
2019-05-18T12:48:49.895Z,22.6
2019-05-18T12:50:49.800Z,22.6
2019-05-18T12:52:49.871Z,22.6
2019-05-18T12:54:49.791Z,22.6
2019-05-18T12:56:50.042Z,22.6
2019-05-18T12:58:50.141Z,22.7
2019-05-18T13:00:50.146Z,22.7
2019-05-18T13:02:50.132Z,22.7
2019-05-18T13:04:50.448Z,22.7
2019-05-18T13:06:50.576Z,22.6
2019-05-18T13:08:50.686Z,22.6
2019-05-18T13:10:49.797Z,22.6
2019-05-18T13:12:49.762Z,22.6
2019-05-18T13:14:49.778Z,22.6
2019-05-18T13:16:49.951Z,22.6
2019-05-18T13:18:49.945Z,22.6
2019-05-18T13:20:50.037Z,22.6
2019-05-18T13:22:50.106Z,22.6
2019-05-18T13:24:52.622Z,22.7
2019-05-18T13:26:49.735Z,22.7
2019-05-18T13:28:49.726Z,22.6
2019-05-18T13:30:49.758Z,22.6
2019-05-18T13:32:49.824Z,22.6
2019-05-18T13:34:50.210Z,22.6
2019-05-18T13:36:50.299Z,22.6
2019-05-18T13:38:50.371Z,22.6
2019-05-18T13:40:50.317Z,22.6
2019-05-18T13:42:50.474Z,22.6
2019-05-18T13:44:50.566Z,22.6
2019-05-18T13:46:50.640Z,22.6
2019-05-18T13:48:49.854Z,22.7
2019-05-18T13:50:49.794Z,22.7
2019-05-18T13:52:49.880Z,22.7
2019-05-18T13:55:05.446Z,22.7
2019-05-18T13:56:50.010Z,22.7
2019-05-18T13:58:50.020Z,22.6
2019-05-18T14:00:50.080Z,22.6
2019-05-18T14:02:50.098Z,22.6
2019-05-18T14:04:50.557Z,22.6
2019-05-18T14:06:49.776Z,22.6
2019-05-18T14:08:49.905Z,22.6
2019-05-18T14:10:50.009Z,22.6
2019-05-18T14:12:50.181Z,22.7
2019-05-18T14:14:50.232Z,22.7
2019-05-18T14:16:50.387Z,22.7
2019-05-18T14:18:50.418Z,22.8
2019-05-18T14:20:50.511Z,22.9
2019-05-18T14:22:50.568Z,22.9
2019-05-18T14:24:50.700Z,23.0
2019-05-18T14:26:49.900Z,23.0
2019-05-18T14:28:49.878Z,23.0
2019-05-18T14:30:49.946Z,23.0
2019-05-18T14:32:50.059Z,23.1
2019-05-18T14:34:50.471Z,23.1
2019-05-18T14:36:50.679Z,23.2
2019-05-18T14:38:49.850Z,23.3
2019-05-18T14:40:49.964Z,23.3
2019-05-18T14:42:49.997Z,23.3
2019-05-18T14:44:50.089Z,23.3
2019-05-18T14:46:50.263Z,23.3
2019-05-18T14:48:50.404Z,23.2
2019-05-18T14:50:50.441Z,23.2
2019-05-18T14:52:50.632Z,23.2
2019-05-18T14:54:49.682Z,23.2
2019-05-18T14:56:49.802Z,23.1
2019-05-18T14:58:49.900Z,23.1
2019-05-18T15:00:49.942Z,23.0
2019-05-18T15:02:50.003Z,23.0
2019-05-18T15:04:57.272Z,23.0
2019-05-18T15:06:50.410Z,22.9
2019-05-18T15:08:50.588Z,23.0
2019-05-18T15:10:50.691Z,23.0
2019-05-18T15:12:49.753Z,22.9
2019-05-18T15:14:49.719Z,22.9
2019-05-18T15:16:53.466Z,23.0
2019-05-18T15:18:50.501Z,23.1
2019-05-18T15:20:50.563Z,23.1
2019-05-18T15:22:50.689Z,23.1
2019-05-18T15:24:49.793Z,23.1
2019-05-18T15:26:50.168Z,23.0
2019-05-18T15:28:50.113Z,23.0
2019-05-18T15:30:50.067Z,23.0
2019-05-18T15:32:50.155Z,23.0
2019-05-18T15:34:50.425Z,23.0
2019-05-18T15:36:50.692Z,23.0
2019-05-18T15:38:50.715Z,23.1
2019-05-18T15:40:49.751Z,23.1
2019-05-18T15:42:49.908Z,23.1
2019-05-18T15:44:49.938Z,23.2
2019-05-18T15:46:50.013Z,23.2
2019-05-18T15:48:50.251Z,23.2
2019-05-18T15:50:50.308Z,23.2
2019-05-18T15:52:50.337Z,23.3
2019-05-18T15:54:50.457Z,23.3
2019-05-18T15:56:49.778Z,23.3
2019-05-18T15:58:49.779Z,23.3
2019-05-18T16:00:49.881Z,23.3
2019-05-18T16:02:50.135Z,23.4
2019-05-18T16:04:50.522Z,23.3
2019-05-18T16:06:50.602Z,23.4
2019-05-18T16:08:50.644Z,23.4
2019-05-18T16:10:50.675Z,23.4
2019-05-18T16:12:50.639Z,23.4
2019-05-18T16:14:49.700Z,23.5
2019-05-18T16:16:55.474Z,23.5
2019-05-18T16:18:50.494Z,23.6
2019-05-18T16:20:50.530Z,23.6
2019-05-18T16:22:50.489Z,23.6
2019-05-18T16:24:50.608Z,23.5
2019-05-18T16:26:49.772Z,23.4
2019-05-18T16:28:49.786Z,23.4
2019-05-18T16:30:49.881Z,23.4
2019-05-18T16:32:50.031Z,23.4
2019-05-18T16:34:50.439Z,23.4
2019-05-18T16:36:50.645Z,23.4
2019-05-18T16:38:49.713Z,23.3
2019-05-18T16:40:49.719Z,23.2
2019-05-18T16:42:49.875Z,23.2
2019-05-18T16:44:49.964Z,23.2
2019-05-18T16:46:50.078Z,23.2
2019-05-18T16:48:50.134Z,23.2
2019-05-18T16:50:50.244Z,23.2
2019-05-18T16:52:50.321Z,23.2
2019-05-18T16:54:50.380Z,23.2
2019-05-18T16:56:50.663Z,23.2
2019-05-18T16:58:49.701Z,23.2
2019-05-18T17:00:49.686Z,23.2
2019-05-18T17:02:49.844Z,23.0
2019-05-18T17:04:50.238Z,23.0
2019-05-18T17:06:50.552Z,23.0
2019-05-18T17:08:50.579Z,22.84
2019-05-18T17:10:49.742Z,22.84
2019-05-18T17:12:49.768Z,22.39
2019-05-18T17:14:49.806Z,22.28
2019-05-18T17:16:50.122Z,22.20
2019-05-18T17:18:50.146Z,22.16
2019-05-18T17:20:50.231Z,22.08
2019-05-18T17:22:50.353Z,22.06
2019-05-18T17:24:50.380Z,21.95
2019-05-18T17:26:54.010Z,21.89
2019-05-18T17:28:49.982Z,21.80
2019-05-18T17:30:50.107Z,21.74
2019-05-18T17:32:50.185Z,21.74
2019-05-18T17:34:50.583Z,21.71
2019-05-18T17:36:52.987Z,21.67
2019-05-18T17:38:50.079Z,21.56
2019-05-18T17:40:50.282Z,21.48
2019-05-18T17:42:50.393Z,21.42
2019-05-18T17:44:50.455Z,21.36
2019-05-18T17:46:50.661Z,21.26
2019-05-18T17:48:49.813Z,21.20
2019-05-18T17:50:49.833Z,21.07
2019-05-18T17:52:49.944Z,21.02
2019-05-18T17:54:49.956Z,20.96
2019-05-18T17:56:50.056Z,20.85
2019-05-18T17:58:50.178Z,20.74
2019-05-18T18:00:50.301Z,20.74
2019-05-18T18:02:50.380Z,20.55
2019-05-18T18:04:49.782Z,20.48
2019-05-18T18:06:50.008Z,20.35
2019-05-18T18:08:49.992Z,20.27
2019-05-18T18:10:49.983Z,20.18
2019-05-18T18:12:50.158Z,20.06
2019-05-18T18:14:50.141Z,19.98
2019-05-18T18:16:50.284Z,19.89
2019-05-18T18:18:50.340Z,19.83
2019-05-18T18:20:50.426Z,19.68
2019-05-18T18:22:50.428Z,19.58
2019-05-18T18:24:50.455Z,19.58
2019-05-18T18:26:49.742Z,19.40
2019-05-18T18:28:49.753Z,19.33
2019-05-18T18:30:49.868Z,19.30
2019-05-18T18:32:49.967Z,19.18
2019-05-18T18:34:50.378Z,19.07
2019-05-18T18:36:50.548Z,18.97
2019-05-18T18:38:50.594Z,18.91
2019-05-18T18:40:50.573Z,18.81
2019-05-18T18:42:49.758Z,18.74
2019-05-18T18:44:49.816Z,18.65
2019-05-18T18:46:50.110Z,18.58
2019-05-18T18:48:50.188Z,18.49
2019-05-18T18:50:50.237Z,18.45
2019-05-18T18:52:50.518Z,18.30
2019-05-18T18:54:50.514Z,18.25
2019-05-18T18:56:49.760Z,18.11
2019-05-18T18:58:49.773Z,18.01
2019-05-18T19:00:49.783Z,18.01
2019-05-18T19:02:49.827Z,17.87
2019-05-18T19:04:50.165Z,17.77
2019-05-18T19:06:50.336Z,17.71
2019-05-18T19:08:50.406Z,17.50
2019-05-18T19:10:50.362Z,17.37
2019-05-18T19:12:50.395Z,17.26
2019-05-18T19:14:50.466Z,17.22
2019-05-18T19:16:50.570Z,17.07
2019-05-18T19:18:49.737Z,16.85
2019-05-18T19:20:49.869Z,16.68
2019-05-18T19:22:49.859Z,16.61
2019-05-18T19:24:49.921Z,16.46
2019-05-18T19:26:50.250Z,16.39
2019-05-18T19:28:50.402Z,16.27
2019-05-18T19:30:50.421Z,16.16
2019-05-18T19:32:50.605Z,16.08
2019-05-18T19:34:50.050Z,15.95
2019-05-18T19:36:50.218Z,15.95
2019-05-18T19:38:50.153Z,15.76
2019-05-18T19:40:50.201Z,15.65
2019-05-18T19:42:50.271Z,15.58
2019-05-18T19:44:50.291Z,15.47
2019-05-18T19:46:50.483Z,15.45
2019-05-18T19:48:50.627Z,15.34
2019-05-18T19:50:50.660Z,15.29
2019-05-18T19:52:49.839Z,15.17
2019-05-18T19:54:49.894Z,15.07
2019-05-18T19:56:51.234Z,15.00
2019-05-18T19:58:50.404Z,14.92
2019-05-18T20:00:50.451Z,14.85
2019-05-18T20:02:50.569Z,14.77
2019-05-18T20:05:09.681Z,14.73
2019-05-18T20:06:49.795Z,14.71
2019-05-18T20:08:49.807Z,14.66
2019-05-18T20:10:49.825Z,14.63
2019-05-18T20:12:49.887Z,14.58
2019-05-18T20:14:49.876Z,14.54
2019-05-18T20:16:50.242Z,14.45
2019-05-18T20:18:50.353Z,14.38
2019-05-18T20:20:50.389Z,14.31
2019-05-18T20:22:50.399Z,14.26
2019-05-18T20:24:50.433Z,14.21
2019-05-18T20:26:50.694Z,14.16
2019-05-18T20:28:49.786Z,14.14
2019-05-18T20:30:49.793Z,14.14
2019-05-18T20:32:49.955Z,14.10
2019-05-18T20:34:50.366Z,14.05
2019-05-18T20:36:49.710Z,14.00
2019-05-18T20:38:49.693Z,13.93
2019-05-18T20:40:49.712Z,13.90
2019-05-18T20:42:49.765Z,13.88
2019-05-18T20:44:49.779Z,13.82
2019-05-18T20:46:50.028Z,13.78
2019-05-18T20:48:49.993Z,13.74
2019-05-18T20:50:50.005Z,13.69
2019-05-18T20:52:50.101Z,13.66
2019-05-18T20:54:50.152Z,13.66
2019-05-18T20:56:50.318Z,13.61
2019-05-18T20:58:50.405Z,13.57
2019-05-18T21:00:50.412Z,13.57
2019-05-18T21:02:50.647Z,13.53
2019-05-18T21:04:50.054Z,13.51
2019-05-18T21:06:50.208Z,13.50
2019-05-18T21:08:50.222Z,13.49
2019-05-18T21:10:50.364Z,13.46
2019-05-18T21:12:50.346Z,13.48
2019-05-18T21:14:50.432Z,13.52
2019-05-18T21:16:49.734Z,13.53
2019-05-18T21:18:49.773Z,13.54
2019-05-18T21:20:49.835Z,13.49
2019-05-18T21:22:49.794Z,13.49
2019-05-18T21:24:49.852Z,13.58
2019-05-18T21:26:50.007Z,13.67
2019-05-18T21:29:01.148Z,13.74
2019-05-18T21:30:50.195Z,13.79
2019-05-18T21:32:50.318Z,13.75
2019-05-18T21:34:49.748Z,13.71
2019-05-18T21:36:49.906Z,13.69
2019-05-18T21:38:49.888Z,13.70
2019-05-18T21:40:49.934Z,13.69
2019-05-18T21:42:50.145Z,13.75
2019-05-18T21:44:50.218Z,13.78
2019-05-18T21:46:50.385Z,13.80
2019-05-18T21:48:50.376Z,13.84
2019-05-18T21:50:50.488Z,13.91
2019-05-18T21:52:50.476Z,13.93
2019-05-18T21:54:50.563Z,13.92
2019-05-18T21:56:49.805Z,13.93
2019-05-18T21:58:49.800Z,13.96
2019-05-18T22:00:49.835Z,13.98
2019-05-18T22:02:49.830Z,14.00
2019-05-18T22:04:50.296Z,13.99
2019-05-18T22:06:50.374Z,13.95
2019-05-18T22:08:50.398Z,13.94
2019-05-18T22:10:50.515Z,13.91
2019-05-18T22:12:50.516Z,13.88
2019-05-18T22:14:50.568Z,13.83
2019-05-18T22:16:49.866Z,13.78
2019-05-18T22:18:49.899Z,13.79
2019-05-18T22:20:49.962Z,13.83
2019-05-18T22:22:49.904Z,13.84
2019-05-18T22:24:49.913Z,13.80
2019-05-18T22:26:50.211Z,13.80
2019-05-18T22:28:50.169Z,13.77
2019-05-18T22:30:50.206Z,13.76
2019-05-18T22:32:50.199Z,13.80
2019-05-18T22:34:49.716Z,13.79
2019-05-18T22:36:49.889Z,13.76
2019-05-18T22:38:50.034Z,13.71
2019-05-18T22:40:50.087Z,13.69
2019-05-18T22:42:50.147Z,13.66
2019-05-18T22:44:50.124Z,13.59
2019-05-18T22:46:50.225Z,13.56
2019-05-18T22:48:50.303Z,13.52
2019-05-18T22:50:50.347Z,13.50
2019-05-18T22:52:50.410Z,13.43
2019-05-18T22:54:50.411Z,13.43
2019-05-18T22:56:50.658Z,13.38
2019-05-18T22:58:49.833Z,13.36
2019-05-18T23:00:49.866Z,13.33
2019-05-18T23:02:49.889Z,13.32
2019-05-18T23:04:50.359Z,13.31
2019-05-18T23:06:50.605Z,13.32
2019-05-18T23:08:50.574Z,13.31
2019-05-18T23:10:50.562Z,13.31
2019-05-18T23:12:50.607Z,13.25
2019-05-18T23:14:50.598Z,13.19
2019-05-18T23:16:49.791Z,13.09
2019-05-18T23:18:57.650Z,13.09
2019-05-18T23:20:50.610Z,12.90
2019-05-18T23:22:49.795Z,12.87
2019-05-18T23:24:49.793Z,12.87
2019-05-18T23:26:49.875Z,12.81
2019-05-18T23:28:49.992Z,12.81
2019-05-18T23:30:50.099Z,12.83
2019-05-18T23:32:50.977Z,12.84
2019-05-18T23:34:50.427Z,12.78
2019-05-18T23:36:50.634Z,12.76
2019-05-18T23:38:49.769Z,12.61
2019-05-18T23:40:49.778Z,12.50
2019-05-18T23:42:49.858Z,12.43
2019-05-18T23:44:49.884Z,12.39
2019-05-18T23:46:49.997Z,12.38
2019-05-18T23:48:50.000Z,12.40
2019-05-18T23:50:49.993Z,12.40
2019-05-18T23:52:50.059Z,12.37
2019-05-18T23:54:50.040Z,12.38
2019-05-18T23:56:50.146Z,12.38
2019-05-18T23:58:50.207Z,12.32
